METAR

METAR

SAPL62 EPRA 111900
METAR EPRA 111900Z 15012KT CAVOK 05/02 Q0995=

TAF

TAF

FCPL62 EPRA 111700 AAA
TAF AMD EPRA 111901Z 1118/1203 CNL=

Witamy na stronie Radom Meteo

zawsze aktualna prognoza dla pilotów 

Czym się zajmujemy

W zakresie osłony meteorologicznej realizujemy:

  • wykonywanie pomiarów i obserwacji meteorologicznych;
  • przygotowane prognoz meteorologicznych;
  • opracowywanie ostrzeżeń meteorologicznych;
  • informowanie o warunkach meteorologicznych;
  • dystrybucję informacji meteorologicznych;
  • opracowywanie danych klimatycznych.